Time;durP1;ratioP1;P1;durP2;ratioP2;P2;SDS_P1;SDS_P2;PMS_P1;PMS_P2;Temp;Humidity;BMP_temperature;BMP_pressure;BME280_temperature;BME280_humidity;BME280_pressure;Samples;Min_cycle;Max_cycle;Signal;HPM_P1;HPM_P2
2022/06/02 00:00:11;;;;;;;;;13.00;12.00;;;;;20.97;44.42;98707.22;6221038;28;97320;-71
2022/06/02 00:03:24;;;;;;;;;13.75;13.00;;;;;20.89;45.10;98705.97;6209654;28;96697;-69
2022/06/02 00:06:42;;;;;;;;;11.60;11.40;;;;;20.84;45.16;98692.31;6219353;28;96554;-71
2022/06/02 00:09:57;;;;;;;;;12.20;11.60;;;;;20.80;45.53;98696.75;6230312;28;98036;-71
2022/06/02 00:13:09;;;;;;;;;12.80;12.00;;;;;20.80;45.45;98702.25;6202742;28;98889;-71
2022/06/02 00:16:25;;;;;;;;;12.00;11.00;;;;;20.81;45.43;98705.81;6217378;28;97354;-68
2022/06/02 00:19:36;;;;;;;;;14.50;13.00;;;;;20.85;45.17;98706.84;6213618;28;96706;-69
2022/06/02 00:22:48;;;;;;;;;11.00;11.00;;;;;20.90;45.50;98701.31;6202106;28;97598;-68
2022/06/02 00:26:02;;;;;;;;;14.40;13.00;;;;;20.97;44.99;98707.22;6225016;27;97954;-72
2022/06/02 00:29:16;;;;;;;;;10.60;10.60;;;;;21.03;44.92;98706.06;6191444;27;97480;-71
2022/06/02 00:32:33;;;;;;;;;10.20;10.00;;;;;21.06;44.57;98711.75;6235610;27;96945;-68
2022/06/02 00:35:43;;;;;;;;;13.50;11.50;;;;;21.08;44.73;98706.81;6218285;27;96707;-68
2022/06/02 00:38:46;;;;;;;;;13.00;11.00;;;;;21.14;44.46;98702.94;6180803;28;96780;-72
2022/06/02 00:42:04;;;;;;;;;12.00;11.00;;;;;21.21;43.92;98713.50;6211009;27;99531;-71
2022/06/02 00:45:11;;;;;;;;;12.00;11.00;;;;;21.29;43.88;98712.06;6181544;28;97474;-70
2022/06/02 00:48:21;;;;;;;;;10.20;9.20;;;;;21.30;44.17;98705.47;6180979;28;97468;-67
2022/06/02 00:51:34;;;;;;;;;10.20;10.20;;;;;21.24;44.61;98703.91;6215570;27;99429;-68
2022/06/02 00:58:21;;;;;;;;;12.20;12.00;;;;;21.13;45.31;98723.22;6173466;28;97202;-69
2022/06/02 01:01:28;;;;;;;;;13.25;12.00;;;;;21.12;45.24;98724.28;6222358;27;97780;-71
2022/06/02 01:04:36;;;;;;;;;13.00;12.00;;;;;21.06;45.05;98788.50;6181565;28;97428;-69
2022/06/02 01:07:46;;;;;;;;;14.00;14.00;;;;;20.68;44.86;98792.22;6262525;27;98375;-69
2022/06/02 01:11:06;;;;;;;;;15.00;14.00;;;;;20.69;45.09;98797.44;6183063;28;97506;-70
2022/06/02 01:14:29;;;;;;;;;17.00;15.00;;;;;20.72;45.16;98788.63;6182409;28;97368;-71
2022/06/02 01:17:41;;;;;;;;;15.00;14.00;;;;;20.68;45.84;98794.97;6178963;28;97471;-71
2022/06/02 01:21:15;;;;;;;;;12.00;11.20;;;;;20.71;46.20;98787.00;6277735;27;97202;-71
2022/06/02 01:24:50;;;;;;;;;14.00;11.00;;;;;20.77;46.63;98779.53;6179002;28;96789;-69
2022/06/02 01:28:23;;;;;;;;;12.00;12.00;;;;;20.74;47.19;98785.59;6177325;28;97484;-71
2022/06/02 01:31:39;;;;;;;;;10.60;10.60;;;;;20.68;47.79;98781.28;6182909;28;96913;-71
2022/06/02 01:34:59;;;;;;;;;10.00;9.60;;;;;20.67;48.12;98785.13;6184189;28;97401;-72
2022/06/02 01:38:08;;;;;;;;;10.60;10.60;;;;;20.54;48.40;98788.53;6185274;28;98418;-71
2022/06/02 01:41:21;;;;;;;;;11.00;10.00;;;;;20.43;48.40;98797.97;6196596;27;96794;-68
2022/06/02 01:44:33;;;;;;;;;15.80;12.80;;;;;20.30;48.90;98796.69;6259979;27;98191;-69
2022/06/02 01:47:42;;;;;;;;;15.00;13.00;;;;;20.21;49.11;98804.69;6193361;27;97210;-71
2022/06/02 01:50:59;;;;;;;;;13.60;12.00;;;;;20.10;49.38;98808.59;6252174;27;98465;-71
2022/06/02 01:54:13;;;;;;;;;14.00;12.25;;;;;20.06;50.11;98804.81;6251693;27;97064;-68
2022/06/02 01:57:33;;;;;;;;;11.33;11.00;;;;;20.10;50.26;98800.38;6185602;28;97026;-71
2022/06/02 02:00:37;;;;;;;;;10.80;10.20;;;;;20.07;50.57;98805.63;6251930;27;97681;-68
2022/06/02 02:03:55;;;;;;;;;13.00;11.00;;;;;20.16;50.81;98810.22;6251956;27;98148;-70
2022/06/02 02:07:03;;;;;;;;;10.00;9.60;;;;;20.24;50.55;98795.91;6184269;28;96565;-72
2022/06/02 02:10:18;;;;;;;;;11.00;9.00;;;;;20.34;50.62;98795.03;6251334;27;97287;-68
2022/06/02 02:13:46;;;;;;;;;10.00;8.40;;;;;20.51;50.11;98789.94;6227671;27;96797;-71
2022/06/02 02:16:55;;;;;;;;;8.67;8.67;;;;;20.50;50.78;98787.50;6233681;27;96943;-70
2022/06/02 02:20:08;;;;;;;;;8.00;7.00;;;;;20.59;50.47;98788.50;6222572;27;96941;-72
2022/06/02 02:23:20;;;;;;;;;7.60;7.60;;;;;20.64;51.00;98778.31;6183839;27;96828;-69
2022/06/02 02:26:31;;;;;;;;;7.00;6.00;;;;;20.70;50.50;98779.06;6183807;28;97232;-68
2022/06/02 02:29:44;;;;;;;;;9.00;8.60;;;;;20.67;51.25;98782.41;6182416;28;97487;-68
2022/06/02 02:32:57;;;;;;;;;7.00;7.00;;;;;20.67;51.37;98798.84;6249147;27;98183;-71
2022/06/02 02:36:11;;;;;;;;;10.40;8.00;;;;;20.69;51.57;98802.91;6239221;27;96745;-70
2022/06/02 02:39:21;;;;;;;;;8.00;7.00;;;;;20.61;52.10;98813.69;6206250;27;96932;-68
2022/06/02 02:42:30;;;;;;;;;6.00;6.00;;;;;20.63;52.07;98811.44;6185349;28;97519;-68
2022/06/02 02:45:44;;;;;;;;;6.00;6.00;;;;;20.53;52.46;98811.53;6184915;27;97455;-71
2022/06/02 02:48:58;;;;;;;;;7.00;7.00;;;;;20.51;52.78;98816.50;6179474;28;97692;-68
2022/06/02 02:52:11;;;;;;;;;7.00;7.00;;;;;20.49;53.03;98819.53;6185590;28;97085;-68
2022/06/02 02:55:20;;;;;;;;;7.00;6.00;;;;;20.44;53.01;98807.81;6238218;27;96839;-71
2022/06/02 02:58:41;;;;;;;;;8.80;8.00;;;;;20.47;53.33;98837.38;6243535;27;98436;-68
2022/06/02 03:01:51;;;;;;;;;8.00;7.40;;;;;20.51;53.11;98849.38;6186067;27;98092;-71
2022/06/02 03:05:01;;;;;;;;;7.00;7.00;;;;;20.40;53.67;98826.75;6182169;28;97463;-68
2022/06/02 03:08:13;;;;;;;;;10.00;8.60;;;;;20.43;53.65;98830.84;6180402;28;98165;-68
2022/06/02 03:11:40;;;;;;;;;8.20;7.00;;;;;20.43;54.39;98828.88;6185439;28;96835;-70
2022/06/02 03:15:11;;;;;;;;;7.00;7.00;;;;;20.40;54.35;98825.91;6226341;27;97324;-67
2022/06/02 03:18:31;;;;;;;;;7.00;6.25;;;;;20.42;54.55;98821.81;6182375;27;96523;-69
2022/06/02 03:21:37;;;;;;;;;8.00;7.00;;;;;20.46;54.84;98817.38;6216340;27;99407;-68
2022/06/02 03:25:00;;;;;;;;;7.00;7.00;;;;;20.42;55.51;98808.13;6190579;27;96835;-68
2022/06/02 03:28:15;;;;;;;;;7.00;7.00;;;;;20.37;55.25;98794.47;6197141;27;97966;-68
2022/06/02 03:31:32;;;;;;;;;7.00;6.80;;;;;20.30;55.52;98791.19;6257374;27;97023;-70
2022/06/02 03:34:46;;;;;;;;;8.00;7.00;;;;;20.29;55.88;98792.28;6182834;28;96510;-69
2022/06/02 03:38:06;;;;;;;;;7.00;7.00;;;;;20.22;55.96;98795.38;6178831;27;97796;-70
2022/06/02 03:41:27;;;;;;;;;9.60;8.00;;;;;20.12;56.21;98790.00;6239483;27;97119;-68
2022/06/02 03:44:49;;;;;;;;;8.60;8.60;;;;;20.10;56.50;98803.13;6180793;28;96679;-67
2022/06/02 03:48:07;;;;;;;;;8.00;7.20;;;;;20.14;56.52;98809.66;6187119;27;97145;-67
2022/06/02 03:51:25;;;;;;;;;8.00;8.00;;;;;20.12;56.94;98824.75;6250309;27;98462;-67
2022/06/02 03:54:51;;;;;;;;;7.00;6.00;;;;;19.90;57.27;98842.41;6177243;27;97320;-70
2022/06/02 03:58:11;;;;;;;;;6.00;6.00;;;;;19.90;57.62;98834.19;6180893;28;96737;-67
2022/06/02 04:01:20;;;;;;;;;8.00;7.60;;;;;19.89;57.30;98823.53;6248042;27;97554;-67
2022/06/02 04:04:38;;;;;;;;;7.20;7.00;;;;;19.97;57.54;98828.41;6250264;27;97417;-70
2022/06/02 04:07:49;;;;;;;;;8.80;8.00;;;;;20.02;57.54;98822.09;6182323;28;97257;-69
2022/06/02 04:11:00;;;;;;;;;8.40;8.00;;;;;19.98;57.99;98829.22;6179664;28;97498;-68
2022/06/02 04:14:11;;;;;;;;;9.40;7.00;;;;;19.98;57.77;98826.50;6231894;27;96657;-70
2022/06/02 04:17:26;;;;;;;;;9.00;8.00;;;;;20.08;57.63;98824.50;6198394;27;96663;-71
2022/06/02 04:20:45;;;;;;;;;8.00;7.00;;;;;20.15;57.57;98825.00;6180487;28;96631;-70
2022/06/02 04:24:11;;;;;;;;;8.00;8.00;;;;;20.22;57.37;98825.50;6210249;27;96694;-68
2022/06/02 04:27:23;;;;;;;;;9.00;9.00;;;;;20.18;57.59;98851.78;6239485;27;97189;-72
2022/06/02 04:30:38;;;;;;;;;10.00;9.00;;;;;20.25;57.43;98830.38;6189798;27;96563;-70
2022/06/02 04:33:50;;;;;;;;;9.00;8.00;;;;;20.25;57.50;98852.28;6167522;28;96388;-70
2022/06/02 04:37:02;;;;;;;;;9.60;8.60;;;;;20.25;57.56;98857.75;6141163;27;99610;-68
2022/06/02 04:40:18;;;;;;;;;10.00;9.00;;;;;20.27;57.83;98861.03;6180169;27;96530;-70
2022/06/02 04:43:33;;;;;;;;;9.80;9.00;;;;;20.29;58.03;98868.94;6157821;27;96845;-70
2022/06/02 04:46:57;;;;;;;;;8.00;8.00;;;;;20.32;57.57;98865.69;6170687;27;97027;-70
2022/06/02 04:50:07;;;;;;;;;10.00;9.00;;;;;20.35;57.71;98865.13;6153890;27;97447;-71
2022/06/02 04:53:22;;;;;;;;;9.33;8.33;;;;;20.28;57.83;98865.41;6154974;28;97386;-70
2022/06/02 04:56:33;;;;;;;;;9.00;8.00;;;;;20.36;57.54;98864.00;6155192;28;97074;-68
2022/06/02 04:59:50;;;;;;;;;10.00;9.40;;;;;20.41;57.76;98847.53;6152528;27;98029;-70
2022/06/02 05:03:05;;;;;;;;;9.00;8.40;;;;;20.43;57.72;98847.28;6157562;28;97246;-72
2022/06/02 05:06:17;;;;;;;;;10.00;9.00;;;;;20.42;57.60;98853.84;6181169;27;98110;-66
2022/06/02 05:09:27;;;;;;;;;9.00;8.00;;;;;20.21;58.04;98858.63;6160653;28;97004;-67
2022/06/02 05:12:43;;;;;;;;;9.40;8.00;;;;;20.40;57.64;98880.69;6180739;27;97160;-69
2022/06/02 05:16:05;;;;;;;;;11.00;10.00;;;;;20.52;57.67;98881.97;6170579;27;97208;-72
2022/06/02 05:19:36;;;;;;;;;10.00;9.60;;;;;20.62;57.06;98887.34;6161204;28;96826;-70
2022/06/02 05:22:57;;;;;;;;;10.00;9.40;;;;;20.70;57.01;98875.78;6162023;28;96609;-71
2022/06/02 05:26:27;;;;;;;;;9.00;9.00;;;;;20.78;56.65;98893.50;6172389;27;97425;-71
2022/06/02 05:29:52;;;;;;;;;11.00;11.00;;;;;20.83;56.90;98884.41;6185698;28;97384;-69
2022/06/02 05:33:28;;;;;;;;;9.00;9.00;;;;;20.87;56.25;98875.31;6185002;28;98072;-71
2022/06/02 05:37:05;;;;;;;;;8.25;7.25;;;;;20.74;56.06;98863.13;6251360;27;97772;-70
2022/06/02 05:40:24;;;;;;;;;7.00;6.00;;;;;20.95;55.57;98873.91;6253110;27;98749;-69
2022/06/02 05:43:34;;;;;;;;;6.00;6.00;;;;;21.01;55.39;98879.03;6180683;28;96711;-68
2022/06/02 05:47:04;;;;;;;;;9.40;7.40;;;;;21.00;55.17;98862.88;6185838;28;96601;-66
2022/06/02 05:50:20;;;;;;;;;5.20;5.20;;;;;20.96;54.69;98878.28;6253154;27;98344;-67
2022/06/02 05:53:46;;;;;;;;;5.00;4.60;;;;;21.07;54.59;98879.78;6191859;27;96531;-65
2022/06/02 05:57:01;;;;;;;;;5.00;5.00;;;;;21.10;54.25;98879.22;6259465;27;97375;-70
2022/06/02 06:00:17;;;;;;;;;4.00;3.00;;;;;21.25;54.06;98886.50;6186327;28;96519;-70
2022/06/02 06:03:43;;;;;;;;;3.20;3.00;;;;;21.47;54.44;98892.25;6233772;27;96659;-68
2022/06/02 06:06:53;;;;;;;;;5.00;4.00;;;;;21.70;53.40;98887.88;6282345;27;96643;-66
2022/06/02 06:10:07;;;;;;;;;6.50;4.50;;;;;21.89;52.59;98889.50;6184116;28;96699;-67
2022/06/02 06:13:31;;;;;;;;;5.40;4.40;;;;;22.10;52.34;98884.59;6181797;28;97517;-73
2022/06/02 06:16:40;;;;;;;;;4.20;4.20;;;;;22.22;52.26;98892.41;6251148;27;99621;-72
2022/06/02 06:20:02;;;;;;;;;5.00;5.00;;;;;22.39;51.51;98898.16;6183883;28;97512;-73
2022/06/02 06:23:41;;;;;;;;;5.60;5.60;;;;;22.44;51.50;98909.88;6241277;27;98672;-72
2022/06/02 06:26:54;;;;;;;;;4.50;4.00;;;;;22.52;51.62;98910.34;6226435;27;96790;-69
2022/06/02 06:30:08;;;;;;;;;7.00;6.00;;;;;22.62;51.41;98911.00;6270435;27;96596;-69
2022/06/02 06:33:17;;;;;;;;;6.00;5.60;;;;;22.64;50.76;98906.00;6185866;27;97147;-68
2022/06/02 06:36:40;;;;;;;;;5.00;5.00;;;;;22.70;51.07;98914.97;6185643;28;96561;-71
2022/06/02 06:39:58;;;;;;;;;4.00;4.00;;;;;22.72;50.64;98897.13;6183660;28;97001;-72
2022/06/02 06:43:12;;;;;;;;;4.75;4.75;;;;;23.00;50.21;98921.94;6214824;27;96632;-72
2022/06/02 06:46:23;;;;;;;;;5.00;5.00;;;;;23.20;48.97;98925.13;6254170;27;96950;-72
2022/06/02 06:49:39;;;;;;;;;4.00;4.00;;;;;23.56;48.87;98932.72;6185490;28;97046;-71
2022/06/02 06:53:07;;;;;;;;;4.00;4.00;;;;;23.74;48.46;98940.06;6184701;28;97923;-72
2022/06/02 06:56:19;;;;;;;;;4.00;4.00;;;;;23.97;47.72;98952.78;6232136;27;97763;-69
2022/06/02 06:59:47;;;;;;;;;4.00;4.00;;;;;24.11;46.91;98945.31;6185636;28;96614;-72
2022/06/02 07:03:03;;;;;;;;;4.20;4.20;;;;;24.22;46.44;98948.72;6188172;27;96580;-72
2022/06/02 07:06:16;;;;;;;;;4.00;4.00;;;;;24.43;46.11;98962.84;6256745;27;98642;-68
2022/06/02 07:09:28;;;;;;;;;4.50;4.00;;;;;24.53;45.41;98959.88;6251659;27;97487;-71
2022/06/02 07:12:54;;;;;;;;;4.00;3.00;;;;;24.78;46.12;98963.94;6185026;28;97547;-70
2022/06/02 07:16:05;;;;;;;;;4.00;4.00;;;;;25.05;45.97;98961.09;6185152;28;96475;-70
2022/06/02 07:19:19;;;;;;;;;4.00;4.00;;;;;25.15;45.12;98963.59;6203789;27;99419;-72
2022/06/02 07:22:29;;;;;;;;;3.60;3.00;;;;;25.29;44.60;98971.78;6180730;28;97915;-71
2022/06/02 07:25:53;;;;;;;;;5.00;4.00;;;;;25.48;44.31;98966.03;6184344;28;97457;-72
2022/06/02 07:29:07;;;;;;;;;4.00;4.00;;;;;25.60;43.59;98966.28;6250195;27;97274;-71
2022/06/02 07:32:38;;;;;;;;;3.40;3.40;;;;;25.67;43.32;98970.22;6183043;28;98160;-69
2022/06/02 07:36:17;;;;;;;;;3.00;3.00;;;;;26.03;43.22;98966.44;6251110;27;98761;-72
2022/06/02 07:39:59;;;;;;;;;3.75;3.00;;;;;26.42;41.58;98969.16;6179976;28;96484;-69
2022/06/02 07:43:34;;;;;;;;;3.00;2.00;;;;;26.77;40.58;98978.28;6182415;28;96470;-69
2022/06/02 07:47:00;;;;;;;;;3.60;3.00;;;;;27.01;40.28;98980.56;6184308;27;97489;-71
2022/06/02 07:50:12;;;;;;;;;4.00;3.80;;;;;27.20;39.61;98981.03;6185226;28;97306;-71
2022/06/02 07:53:20;;;;;;;;;4.40;4.40;;;;;27.09;38.44;98988.84;6183636;28;96676;-70
2022/06/02 07:56:31;;;;;;;;;6.00;5.00;;;;;27.17;38.89;98989.19;6181822;28;97421;-70
2022/06/02 07:59:51;;;;;;;;;5.00;5.00;;;;;27.23;39.32;98991.41;6252130;27;96911;-72
2022/06/02 08:03:24;;;;;;;;;4.00;4.00;;;;;27.32;38.19;99003.28;6234830;27;97275;-74
2022/06/02 08:06:37;;;;;;;;;5.00;5.00;;;;;27.39;37.86;99003.63;6244829;27;97311;-71
2022/06/02 08:10:01;;;;;;;;;5.00;5.00;;;;;27.54;38.17;99008.66;6183299;28;97516;-72
2022/06/02 08:13:24;;;;;;;;;4.60;4.60;;;;;27.72;37.14;99012.16;6252066;27;97857;-68
2022/06/02 08:16:51;;;;;;;;;5.00;5.00;;;;;27.83;38.31;99012.63;6256675;27;97397;-68
2022/06/02 08:20:25;;;;;;;;;5.40;5.00;;;;;27.79;38.00;99028.28;6209806;27;97065;-69
2022/06/02 08:24:01;;;;;;;;;7.40;6.00;;;;;27.79;37.24;99031.88;6182412;28;97465;-70
2022/06/02 08:27:29;;;;;;;;;6.00;6.00;;;;;27.78;37.37;99026.66;6223397;27;96678;-71
2022/06/02 08:30:43;;;;;;;;;6.00;6.00;;;;;27.95;37.53;99032.16;6165798;27;96565;-70
2022/06/02 08:33:54;;;;;;;;;6.60;6.00;;;;;27.96;37.12;99034.56;6249904;27;96870;-71
2022/06/02 08:37:14;;;;;;;;;6.00;6.00;;;;;28.08;36.90;99038.59;6242881;27;97149;-68
2022/06/02 08:40:41;;;;;;;;;7.00;6.00;;;;;28.23;36.75;99038.06;6268264;27;97238;-67
2022/06/02 08:44:09;;;;;;;;;7.00;7.00;;;;;28.46;36.82;99052.44;6186484;27;97409;-70
2022/06/02 08:47:54;;;;;;;;;6.75;6.25;;;;;28.99;36.05;99049.00;6189949;27;96543;-70
2022/06/02 08:51:28;;;;;;;;;7.00;6.40;;;;;29.15;36.08;99039.72;6187479;28;97823;-73
2022/06/02 08:55:07;;;;;;;;;6.75;6.75;;;;;29.60;34.51;99045.34;6186014;28;97370;-70
2022/06/02 08:59:10;;;;;;;;;5.60;5.00;;;;;29.98;33.74;99041.50;6242930;27;100099;-73
2022/06/02 09:03:07;;;;;;;;;6.80;6.80;;;;;29.85;33.30;99056.50;6175438;28;96842;-69
2022/06/02 09:06:42;;;;;;;;;5.00;5.00;;;;;29.58;32.85;99055.97;6207972;27;96744;-70
2022/06/02 09:10:17;;;;;;;;;7.00;6.40;;;;;29.41;33.51;99058.13;6186880;28;96953;-71
2022/06/02 09:13:54;;;;;;;;;7.60;7.00;;;;;29.23;33.44;99055.47;6185607;27;97669;-69
2022/06/02 09:16:59;;;;;;;;;5.75;5.75;;;;;28.79;33.61;99048.66;6188415;27;97476;-72
2022/06/02 09:20:27;;;;;;;;;7.00;6.80;;;;;28.86;34.62;99056.44;6208333;27;97252;-70
2022/06/02 09:23:50;;;;;;;;;6.00;6.00;;;;;29.19;33.75;99048.16;6240248;27;97937;-72
2022/06/02 09:27:05;;;;;;;;;6.00;6.00;;;;;29.33;34.09;99047.91;6185931;27;96720;-67
2022/06/02 09:30:15;;;;;;;;;6.00;6.00;;;;;29.43;33.40;99048.28;6186431;28;96591;-69
2022/06/02 09:33:44;;;;;;;;;5.00;5.00;;;;;29.59;32.17;99057.59;6254234;27;99712;-72
2022/06/02 09:37:19;;;;;;;;;5.00;5.00;;;;;30.07;32.66;99061.66;6198017;27;100147;-71
2022/06/02 09:40:44;;;;;;;;;6.60;6.60;;;;;30.36;32.05;99060.63;6179893;28;96467;-69
2022/06/02 09:44:08;;;;;;;;;7.00;6.00;;;;;30.51;31.92;99051.59;6253877;27;97676;-69
2022/06/02 09:47:30;;;;;;;;;6.60;6.60;;;;;30.01;31.70;99065.81;6254187;27;97164;-71
2022/06/02 09:50:46;;;;;;;;;9.00;7.00;;;;;29.89;33.07;99063.03;6252851;27;96698;-73
2022/06/02 09:54:07;;;;;;;;;5.20;5.00;;;;;29.78;32.75;99068.19;6174234;28;96833;-71
2022/06/02 09:58:02;;;;;;;;;6.50;6.50;;;;;29.48;33.33;99077.81;6252242;27;97750;-70
2022/06/02 10:01:36;;;;;;;;;8.20;8.00;;;;;29.24;33.34;99093.19;6232870;27;97217;-69
2022/06/02 10:05:00;;;;;;;;;8.00;8.00;;;;;28.89;32.69;99082.69;6252425;27;97775;-70
2022/06/02 10:08:16;;;;;;;;;7.00;7.00;;;;;28.84;33.26;99094.81;6177038;28;96576;-73
2022/06/02 10:11:30;;;;;;;;;7.00;7.00;;;;;29.09;33.20;99096.59;6257777;27;98598;-71
2022/06/02 10:14:58;;;;;;;;;8.20;8.20;;;;;29.63;33.22;99099.41;6238191;27;96420;-73
2022/06/02 10:18:16;;;;;;;;;8.00;8.00;;;;;30.12;31.93;99090.06;6185206;27;96632;-71
2022/06/02 10:21:46;;;;;;;;;8.00;8.00;;;;;30.68;30.87;99084.75;6215554;27;96814;-70
2022/06/02 10:25:13;;;;;;;;;8.00;8.00;;;;;30.87;30.30;99082.19;6182012;27;96718;-69
2022/06/02 10:28:55;;;;;;;;;7.00;7.00;;;;;30.93;30.36;99089.13;6250005;27;98678;-71
2022/06/02 10:32:23;;;;;;;;;9.00;9.00;;;;;30.75;30.23;99087.75;6186905;27;96930;-70
2022/06/02 10:36:08;;;;;;;;;11.00;10.00;;;;;30.83;30.57;99086.03;6185798;27;97115;-68
2022/06/02 10:39:41;;;;;;;;;9.00;8.00;;;;;31.08;29.92;99070.91;6245796;27;96669;-70
2022/06/02 10:43:18;;;;;;;;;8.60;8.00;;;;;31.56;29.00;99086.66;6185038;28;96676;-71
2022/06/02 10:47:10;;;;;;;;;8.00;8.00;;;;;32.09;29.06;99090.03;6185166;27;97242;-70
2022/06/02 10:50:30;;;;;;;;;9.25;9.00;;;;;32.22;29.24;99086.03;6185358;28;96303;-71
2022/06/02 10:54:29;;;;;;;;;9.60;9.60;;;;;31.98;28.99;99086.97;6188194;27;97199;-71
2022/06/02 10:58:32;;;;;;;;;9.75;8.75;;;;;31.67;29.63;99096.09;6239656;27;97024;-69
2022/06/02 11:02:40;;;;;;;;;10.00;10.00;;;;;31.45;29.66;99085.50;6209159;28;98087;-70
2022/06/02 11:06:26;;;;;;;;;9.00;9.00;;;;;31.79;29.44;99082.09;6195930;27;97456;-70
2022/06/02 11:10:03;;;;;;;;;9.00;8.00;;;;;31.93;28.56;99089.22;6220104;27;97505;-70
2022/06/02 11:13:45;;;;;;;;;9.00;9.00;;;;;31.92;29.11;99093.97;6244699;27;98398;-71
2022/06/02 11:17:08;;;;;;;;;9.00;8.50;;;;;31.63;28.16;99089.63;6184964;28;96613;-72
2022/06/02 11:20:36;;;;;;;;;10.00;10.00;;;;;31.35;28.93;99074.84;6183715;27;97231;-73
2022/06/02 11:24:07;;;;;;;;;9.00;9.00;;;;;31.66;29.14;99097.28;6184816;28;97481;-70
2022/06/02 11:27:50;;;;;;;;;9.00;9.00;;;;;31.20;29.06;99095.09;6241234;27;100209;-71
2022/06/02 11:31:18;;;;;;;;;10.00;10.00;;;;;31.02;29.07;99089.03;6248955;27;98160;-70
2022/06/02 11:34:53;;;;;;;;;9.20;8.80;;;;;30.95;29.86;99095.16;6184436;28;97253;-70
2022/06/02 11:38:47;;;;;;;;;8.40;8.40;;;;;30.95;29.48;99092.34;6188800;27;97019;-70
2022/06/02 11:41:57;;;;;;;;;8.00;8.00;;;;;30.85;29.44;99095.63;6210104;27;96561;-70
2022/06/02 11:45:14;;;;;;;;;9.00;9.00;;;;;30.92;29.56;99098.63;6247620;27;97747;-72
2022/06/02 11:48:35;;;;;;;;;8.00;7.60;;;;;31.14;29.03;99088.97;6249023;27;96952;-70
2022/06/02 11:52:12;;;;;;;;;9.00;9.00;;;;;31.42;28.37;99094.59;6198205;27;96906;-67
2022/06/02 11:55:37;;;;;;;;;9.00;9.00;;;;;31.33;28.34;99097.50;6183846;27;96569;-67
2022/06/02 11:59:08;;;;;;;;;9.20;9.00;;;;;31.06;27.63;99111.41;6207704;27;96751;-68
2022/06/02 12:02:44;;;;;;;;;8.00;7.80;;;;;30.85;27.77;99103.16;6244355;27;97524;-69
2022/06/02 12:06:25;;;;;;;;;7.40;7.00;;;;;30.60;28.14;99119.06;6187833;27;97267;-70
2022/06/02 12:10:15;;;;;;;;;10.00;9.00;;;;;30.50;27.39;99123.13;6209115;27;97117;-69
2022/06/02 12:13:35;;;;;;;;;8.00;8.00;;;;;30.63;27.60;99117.59;6195790;27;96635;-68
2022/06/02 12:16:53;;;;;;;;;9.50;8.50;;;;;30.78;26.80;99125.22;6207736;27;96588;-69
2022/06/02 12:20:26;;;;;;;;;8.40;8.40;;;;;30.63;27.23;99121.19;6218847;27;97542;-70
2022/06/02 12:23:46;;;;;;;;;9.40;8.00;;;;;30.47;28.15;99128.59;6187042;27;97242;-69
2022/06/02 12:27:24;;;;;;;;;7.40;7.40;;;;;30.25;27.89;99131.81;6223751;27;96694;-69
2022/06/02 12:30:55;;;;;;;;;7.60;7.60;;;;;30.35;28.48;99137.69;6183618;27;97351;-67
2022/06/02 12:34:16;;;;;;;;;7.00;7.00;;;;;30.77;27.94;99131.94;6261192;27;96931;-70
2022/06/02 12:37:53;;;;;;;;;7.00;6.25;;;;;31.14;27.79;99127.16;6229671;27;97909;-69
2022/06/02 12:41:17;;;;;;;;;5.80;5.80;;;;;31.39;26.90;99117.56;6181352;28;97447;-67
2022/06/02 12:44:58;;;;;;;;;8.00;7.00;;;;;31.67;26.37;99123.16;6258626;27;97571;-69
2022/06/02 12:48:29;;;;;;;;;6.20;6.20;;;;;31.87;25.52;99129.69;6253784;27;97596;-70
2022/06/02 12:51:55;;;;;;;;;5.80;5.80;;;;;32.02;24.91;99126.09;6258683;27;97401;-69
2022/06/02 12:55:36;;;;;;;;;7.00;6.00;;;;;32.35;25.20;99131.41;6193612;27;97198;-68
2022/06/02 12:59:14;;;;;;;;;6.00;5.00;;;;;32.39;23.95;99127.53;6242886;27;96732;-70
2022/06/02 13:02:30;;;;;;;;;7.00;7.00;;;;;32.20;23.81;99133.81;6252818;27;97538;-71
2022/06/02 13:06:03;;;;;;;;;5.00;5.00;;;;;32.15;24.64;99124.91;6176598;28;97445;-71
2022/06/02 13:09:34;;;;;;;;;6.00;6.00;;;;;32.13;23.32;99128.06;6243196;27;97483;-71
2022/06/02 13:13:02;;;;;;;;;6.40;6.40;;;;;31.92;23.29;99130.22;6224015;27;96790;-69
2022/06/02 13:16:36;;;;;;;;;6.00;6.00;;;;;31.72;24.92;99112.56;6239596;27;99441;-70
2022/06/02 13:20:13;;;;;;;;;5.50;5.50;;;;;31.74;24.09;99121.38;6182418;28;96426;-71
2022/06/02 13:24:02;;;;;;;;;5.00;5.00;;;;;31.92;24.08;99127.44;6216359;27;97593;-71
2022/06/02 13:27:34;;;;;;;;;6.00;6.00;;;;;31.66;23.46;99119.59;6274377;27;98831;-72
2022/06/02 13:31:06;;;;;;;;;5.80;5.80;;;;;31.57;23.91;99107.75;6187132;27;97477;-71
2022/06/02 13:34:52;;;;;;;;;5.40;5.40;;;;;31.79;23.45;99123.91;6257555;27;97969;-71
2022/06/02 13:38:29;;;;;;;;;5.00;5.00;;;;;31.79;23.38;99118.34;6233021;27;97114;-71
2022/06/02 13:42:01;;;;;;;;;6.00;5.50;;;;;31.55;22.40;99125.97;6186170;28;96524;-72
2022/06/02 13:45:32;;;;;;;;;6.00;5.00;;;;;31.36;23.07;99118.28;6233298;27;96850;-70
2022/06/02 13:49:10;;;;;;;;;5.00;5.00;;;;;30.87;23.71;99125.91;6280771;27;96659;-71
2022/06/02 13:52:52;;;;;;;;;5.40;5.00;;;;;31.00;24.43;99124.72;6250290;27;98151;-69
2022/06/02 13:59:57;;;;;;;;;5.00;5.00;;;;;31.26;23.35;99113.19;6254588;27;96928;-70
2022/06/02 14:03:36;;;;;;;;;5.00;5.00;;;;;31.42;23.48;99111.28;6215279;27;96551;-72
2022/06/02 14:06:46;;;;;;;;;4.00;4.00;;;;;31.42;23.83;99106.50;6187278;27;96696;-71
2022/06/02 14:10:03;;;;;;;;;4.00;4.00;;;;;31.41;23.74;99118.03;6260752;27;97189;-70
2022/06/02 14:13:29;;;;;;;;;6.00;6.00;;;;;31.27;22.76;99112.84;6234822;27;97613;-71
2022/06/02 14:16:50;;;;;;;;;4.00;4.00;;;;;30.82;22.84;99118.59;6223668;27;96566;-70
2022/06/02 14:20:17;;;;;;;;;5.00;5.00;;;;;30.66;23.82;99097.38;6245972;27;98312;-70
2022/06/02 14:23:34;;;;;;;;;7.00;6.00;;;;;30.64;23.51;99117.25;6259946;27;96612;-69
2022/06/02 14:26:53;;;;;;;;;6.00;6.00;;;;;30.60;23.48;99104.34;6291797;27;96629;-70
2022/06/02 14:30:09;;;;;;;;;3.00;3.00;;;;;30.46;22.79;99105.53;6238849;27;97016;-70
2022/06/02 14:33:29;;;;;;;;;4.50;4.50;;;;;30.49;23.53;99115.16;6232314;27;97499;-71
2022/06/02 14:36:45;;;;;;;;;5.00;4.40;;;;;30.30;22.92;99106.53;6277460;27;97773;-70
2022/06/02 14:39:58;;;;;;;;;4.00;4.00;;;;;30.22;23.98;99115.78;6227499;27;97430;-72
2022/06/02 14:43:36;;;;;;;;;5.00;4.00;;;;;29.98;23.73;99106.25;6230838;27;97281;-70
2022/06/02 14:47:12;;;;;;;;;6.75;5.75;;;;;29.98;23.62;99117.38;6182891;27;97628;-70
2022/06/02 14:50:24;;;;;;;;;5.00;5.00;;;;;29.52;23.67;99117.66;6302335;27;97357;-69
2022/06/02 14:53:53;;;;;;;;;5.00;4.60;;;;;29.39;23.82;99108.47;6226334;27;96603;-70
2022/06/02 14:57:19;;;;;;;;;5.00;5.00;;;;;29.26;23.63;99107.56;6227489;27;97749;-70
2022/06/02 15:00:33;;;;;;;;;5.00;5.00;;;;;29.24;23.84;99115.41;6221250;27;98130;-70
2022/06/02 15:04:15;;;;;;;;;4.00;4.00;;;;;29.34;24.23;99113.41;6252466;27;99290;-69
2022/06/02 15:07:53;;;;;;;;;5.80;5.00;;;;;29.42;24.29;99113.31;6183631;28;96493;-71
2022/06/02 15:11:02;;;;;;;;;6.00;6.00;;;;;29.40;22.84;99109.28;6183437;28;97465;-71
2022/06/02 15:14:17;;;;;;;;;5.00;4.00;;;;;29.51;23.75;99104.94;6251300;27;100113;-70
2022/06/02 15:17:49;;;;;;;;;6.00;5.00;;;;;29.35;24.11;99110.31;6262386;27;97381;-70
2022/06/02 15:21:06;;;;;;;;;5.00;5.00;;;;;29.20;23.47;99086.72;6238060;27;96911;-69
2022/06/02 15:24:30;;;;;;;;;5.00;5.00;;;;;29.37;24.36;99109.97;6248817;27;97449;-69
2022/06/02 15:28:07;;;;;;;;;5.40;5.00;;;;;29.25;23.78;99105.94;6183388;28;96687;-70
2022/06/02 15:31:16;;;;;;;;;4.40;4.40;;;;;29.14;24.07;99115.00;6182534;28;97419;-69
2022/06/02 15:34:52;;;;;;;;;4.00;4.00;;;;;29.04;23.07;99116.22;6181205;28;96968;-70
2022/06/02 15:38:31;;;;;;;;;5.00;4.00;;;;;28.89;22.75;99099.34;6247817;27;97409;-70
2022/06/02 15:42:22;;;;;;;;;5.40;5.00;;;;;28.82;23.09;99109.06;6182383;28;97361;-69
2022/06/02 15:46:01;;;;;;;;;3.60;3.60;;;;;28.62;22.83;99103.44;6193243;28;97486;-69
2022/06/02 15:49:45;;;;;;;;;3.00;3.00;;;;;28.57;23.45;99109.16;6184960;28;97412;-69
2022/06/02 15:53:28;;;;;;;;;4.00;3.40;;;;;28.58;23.30;99110.81;6241531;27;96997;-70
2022/06/02 15:57:07;;;;;;;;;4.75;4.75;;;;;28.49;23.67;99115.59;6230079;27;98481;-69